N422 KBOK-CYYJ
Flight info
| Callsign | N422 |
|---|---|
| Flight time | N/A |
| Altitude | 26000 |
| Route | OTH DCT ONP DCT AST/N0261F250 DCT OLM/N0260F260 DCT CVV |
| Aircraft | BE60/L-SDFGRY/C |
Departure
| Time | N/A |
|---|---|
| Airport | Brookings Airport (KBOK) |
Arrival
| Time | 2026-05-08 02:45 |
|---|---|
| Airport | Victoria International Airport (CYYJ) |
| Time | Latitude | Longitude | Altitude | Speed | Heading |
|---|---|---|---|---|---|
| 2026-05-08 02:26 | 47.94464 | -122.76724 | 25092 ft | 193 kts | 1° |
| 2026-05-08 02:26 | 47.95786 | -122.76537 | 25091 ft | 193 kts | 1° |
| 2026-05-08 02:26 | 47.97126 | -122.76348 | 25093 ft | 194 kts | 1° |
| 2026-05-08 02:27 | 47.98466 | -122.76161 | 25099 ft | 194 kts | 1° |
| 2026-05-08 02:27 | 47.99809 | -122.75971 | 25099 ft | 194 kts | 1° |
| 2026-05-08 02:27 | 48.01151 | -122.75782 | 25101 ft | 194 kts | 1° |
| 2026-05-08 02:27 | 48.02509 | -122.75588 | 24767 ft | 199 kts | 1° |
| 2026-05-08 02:28 | 48.03920 | -122.75386 | 24189 ft | 207 kts | 1° |
| 2026-05-08 02:28 | 48.05371 | -122.75178 | 23643 ft | 213 kts | 2° |
| 2026-05-08 02:28 | 48.06861 | -122.74958 | 23112 ft | 217 kts | 2° |
| 2026-05-08 02:28 | 48.08373 | -122.74736 | 22593 ft | 220 kts | 2° |
| 2026-05-08 02:29 | 48.09911 | -122.74513 | 22081 ft | 223 kts | 2° |
| 2026-05-08 02:29 | 48.11458 | -122.74290 | 21577 ft | 225 kts | 3° |
| 2026-05-08 02:29 | 48.13019 | -122.74065 | 21081 ft | 226 kts | 3° |
| 2026-05-08 02:29 | 48.14588 | -122.73840 | 20584 ft | 227 kts | 3° |
| 2026-05-08 02:30 | 48.16194 | -122.73611 | 20107 ft | 237 kts | 3° |
| 2026-05-08 02:30 | 48.17864 | -122.73372 | 19649 ft | 245 kts | 3° |
| 2026-05-08 02:30 | 48.19583 | -122.73125 | 19203 ft | 251 kts | 4° |
| 2026-05-08 02:30 | 48.21330 | -122.72873 | 18757 ft | 254 kts | 4° |
| 2026-05-08 02:31 | 48.23093 | -122.72956 | 18299 ft | 255 kts | 344° |
| 2026-05-08 02:31 | 48.24653 | -122.74161 | 17839 ft | 254 kts | 317° |
| 2026-05-08 02:31 | 48.25658 | -122.76304 | 17390 ft | 254 kts | 292° |
| 2026-05-08 02:31 | 48.26329 | -122.78752 | 16962 ft | 254 kts | 293° |
| 2026-05-08 02:32 | 48.27069 | -122.81161 | 16536 ft | 254 kts | 295° |
| 2026-05-08 02:32 | 48.27820 | -122.83529 | 16105 ft | 249 kts | 295° |
| 2026-05-08 02:32 | 48.28555 | -122.85855 | 15678 ft | 244 kts | 295° |
| 2026-05-08 02:32 | 48.29271 | -122.88152 | 15240 ft | 241 kts | 294° |
| 2026-05-08 02:33 | 48.29972 | -122.90430 | 14809 ft | 239 kts | 294° |
| 2026-05-08 02:33 | 48.30661 | -122.92684 | 14384 ft | 237 kts | 294° |
| 2026-05-08 02:33 | 48.31342 | -122.94924 | 13960 ft | 235 kts | 294° |
| 2026-05-08 02:33 | 48.32019 | -122.97148 | 13538 ft | 233 kts | 294° |
| 2026-05-08 02:34 | 48.32688 | -122.99353 | 13120 ft | 231 kts | 294° |
| 2026-05-08 02:34 | 48.33352 | -123.01548 | 12705 ft | 230 kts | 294° |
| 2026-05-08 02:34 | 48.34012 | -123.03726 | 12293 ft | 228 kts | 294° |
| 2026-05-08 02:34 | 48.34667 | -123.05894 | 11882 ft | 227 kts | 294° |
| 2026-05-08 02:35 | 48.35321 | -123.08055 | 11476 ft | 226 kts | 294° |
| 2026-05-08 02:35 | 48.35968 | -123.10197 | 11071 ft | 224 kts | 294° |
| 2026-05-08 02:35 | 48.36610 | -123.12322 | 10667 ft | 223 kts | 294° |
| 2026-05-08 02:35 | 48.37248 | -123.14440 | 10268 ft | 221 kts | 294° |
| 2026-05-08 02:36 | 48.37922 | -123.16511 | 9812 ft | 221 kts | 298° |
| 2026-05-08 02:36 | 48.38681 | -123.18529 | 9271 ft | 221 kts | 299° |
| 2026-05-08 02:36 | 48.39442 | -123.20536 | 8736 ft | 221 kts | 299° |
| 2026-05-08 02:36 | 48.40198 | -123.22542 | 8196 ft | 219 kts | 299° |
| 2026-05-08 02:37 | 48.40948 | -123.24533 | 7678 ft | 218 kts | 299° |
| 2026-05-08 02:37 | 48.41692 | -123.26510 | 7154 ft | 216 kts | 299° |
| 2026-05-08 02:37 | 48.42429 | -123.28472 | 6638 ft | 215 kts | 299° |
| 2026-05-08 02:37 | 48.43161 | -123.30420 | 6124 ft | 213 kts | 298° |
| 2026-05-08 02:38 | 48.43916 | -123.32288 | 5706 ft | 204 kts | 304° |
| 2026-05-08 02:38 | 48.44751 | -123.33952 | 5371 ft | 195 kts | 309° |
| 2026-05-08 02:38 | 48.45638 | -123.35453 | 5039 ft | 189 kts | 313° |
| 2026-05-08 02:38 | 48.46592 | -123.36768 | 4693 ft | 186 kts | 321° |
| 2026-05-08 02:39 | 48.47624 | -123.37894 | 4427 ft | 179 kts | 325° |
| 2026-05-08 02:39 | 48.48633 | -123.38910 | 4252 ft | 171 kts | 326° |
| 2026-05-08 02:39 | 48.49615 | -123.39873 | 4040 ft | 167 kts | 326° |
| 2026-05-08 02:39 | 48.50566 | -123.40849 | 3823 ft | 164 kts | 324° |
| 2026-05-08 02:40 | 48.51475 | -123.41855 | 3623 ft | 162 kts | 324° |
| 2026-05-08 02:40 | 48.52384 | -123.42790 | 3536 ft | 154 kts | 328° |
| 2026-05-08 02:40 | 48.53298 | -123.43608 | 3372 ft | 153 kts | 329° |
| 2026-05-08 02:40 | 48.54211 | -123.44428 | 3222 ft | 152 kts | 328° |
| 2026-05-08 02:41 | 48.55108 | -123.45275 | 3035 ft | 153 kts | 327° |
| 2026-05-08 02:41 | 48.56001 | -123.46135 | 2896 ft | 150 kts | 327° |
| 2026-05-08 02:41 | 48.56879 | -123.47029 | 2644 ft | 155 kts | 325° |
| 2026-05-08 02:41 | 48.57755 | -123.47924 | 2590 ft | 145 kts | 329° |
| 2026-05-08 02:42 | 48.58615 | -123.48650 | 2542 ft | 140 kts | 333° |
| 2026-05-08 02:42 | 48.59519 | -123.49250 | 2409 ft | 141 kts | 341° |
| 2026-05-08 02:42 | 48.60460 | -123.49653 | 2257 ft | 141 kts | 349° |
| 2026-05-08 02:42 | 48.61408 | -123.49807 | 1994 ft | 134 kts | 1° |
| 2026-05-08 02:43 | 48.62303 | -123.49696 | 1791 ft | 128 kts | 9° |
| 2026-05-08 02:43 | 48.63197 | -123.49457 | 1485 ft | 133 kts | 14° |
| 2026-05-08 02:43 | 48.64066 | -123.49039 | 1250 ft | 129 kts | 27° |
| 2026-05-08 02:43 | 48.64808 | -123.48317 | 960 ft | 126 kts | 43° |
| 2026-05-08 02:44 | 48.65297 | -123.47350 | 828 ft | 107 kts | 67° |
| 2026-05-08 02:44 | 48.65459 | -123.46279 | 688 ft | 105 kts | 88° |
| 2026-05-08 02:44 | 48.65411 | -123.45180 | 398 ft | 106 kts | 103° |
| 2026-05-08 02:44 | 48.65214 | -123.44119 | 134 ft | 100 kts | 107° |
| 2026-05-08 02:45 | 48.65034 | -123.43207 | 63 ft | 77 kts | 107° |
| 2026-05-08 02:45 | 48.64910 | -123.42567 | 61 ft | 53 kts | 105° |
| 2026-05-08 02:45 | 48.64850 | -123.42249 | 58 ft | 43 kts | 107° |
| 2026-05-08 02:45 | 48.64779 | -123.42028 | 62 ft | 13 kts | 210° |
| 2026-05-08 02:46 | 48.64731 | -123.42117 | 65 ft | 9 kts | 232° |
| 2026-05-08 02:46 | 48.64692 | -123.42176 | 64 ft | 9 kts | 217° |
| 2026-05-08 02:46 | 48.64632 | -123.42221 | 57 ft | 6 kts | 150° |
| 2026-05-08 02:46 | 48.64620 | -123.42162 | 59 ft | 7 kts | 128° |
| 2026-05-08 02:47 | 48.64607 | -123.42190 | 57 ft | 6 kts | 286° |
| 2026-05-08 02:47 | 48.64607 | -123.42193 | 59 ft | 0 kts | 289° |